sensor_id;sensor_type;location;lat;lon;timestamp;P1;durP1;ratioP1;P2;durP2;ratioP2
40757;SDS011;26462;47.384;19.218;2023-01-01T03:47:03;130.68;;;47.60;;
40757;SDS011;26462;47.384;19.218;2023-01-01T03:49:35;141.15;;;50.90;;
40757;SDS011;26462;47.384;19.218;2023-01-01T03:52:11;145.63;;;51.15;;
40757;SDS011;26462;47.384;19.218;2023-01-01T03:57:36;140.68;;;52.60;;
40757;SDS011;26462;47.384;19.218;2023-01-01T04:00:35;151.23;;;54.25;;
40757;SDS011;26462;47.384;19.218;2023-01-01T04:03:08;140.13;;;50.05;;
40757;SDS011;26462;47.384;19.218;2023-01-01T04:05:46;142.70;;;53.05;;
40757;SDS011;26462;47.384;19.218;2023-01-01T04:08:13;141.98;;;49.58;;
40757;SDS011;26462;47.384;19.218;2023-01-01T04:10:55;145.00;;;52.60;;
40757;SDS011;26462;47.384;19.218;2023-01-01T04:13:25;141.35;;;50.67;;
40757;SDS011;26462;47.384;19.218;2023-01-01T04:15:52;144.77;;;49.40;;
40757;SDS011;26462;47.384;19.218;2023-01-01T04:18:20;148.70;;;50.28;;
40757;SDS011;26462;47.384;19.218;2023-01-01T04:20:50;153.85;;;51.17;;
40757;SDS011;26462;47.384;19.218;2023-01-01T04:23:20;160.65;;;54.63;;
40757;SDS011;26462;47.384;19.218;2023-01-01T04:25:48;160.00;;;52.13;;
40757;SDS011;26462;47.384;19.218;2023-01-01T04:28:18;145.60;;;51.70;;
40757;SDS011;26462;47.384;19.218;2023-01-01T04:30:46;151.73;;;52.25;;
40757;SDS011;26462;47.384;19.218;2023-01-01T04:33:14;138.77;;;47.17;;
40757;SDS011;26462;47.384;19.218;2023-01-01T04:35:41;146.80;;;50.58;;
40757;SDS011;26462;47.384;19.218;2023-01-01T04:38:12;131.55;;;46.88;;
40757;SDS011;26462;47.384;19.218;2023-01-01T04:40:40;148.05;;;49.95;;
40757;SDS011;26462;47.384;19.218;2023-01-01T04:43:08;151.60;;;51.15;;
40757;SDS011;26462;47.384;19.218;2023-01-01T04:45:36;156.13;;;48.83;;
40757;SDS011;26462;47.384;19.218;2023-01-01T04:48:03;159.95;;;52.63;;
40757;SDS011;26462;47.384;19.218;2023-01-01T04:50:31;164.88;;;52.15;;
40757;SDS011;26462;47.384;19.218;2023-01-01T04:52:59;147.23;;;49.97;;
40757;SDS011;26462;47.384;19.218;2023-01-01T04:55:26;151.07;;;50.97;;
40757;SDS011;26462;47.384;19.218;2023-01-01T04:57:54;152.60;;;52.78;;
40757;SDS011;26462;47.384;19.218;2023-01-01T05:00:22;148.35;;;51.47;;
40757;SDS011;26462;47.384;19.218;2023-01-01T05:02:49;156.52;;;52.33;;
40757;SDS011;26462;47.384;19.218;2023-01-01T05:05:17;155.55;;;51.20;;
40757;SDS011;26462;47.384;19.218;2023-01-01T05:07:45;139.48;;;49.45;;
40757;SDS011;26462;47.384;19.218;2023-01-01T05:10:13;148.70;;;49.53;;
40757;SDS011;26462;47.384;19.218;2023-01-01T05:12:40;148.50;;;50.25;;
40757;SDS011;26462;47.384;19.218;2023-01-01T05:15:11;147.68;;;49.25;;
40757;SDS011;26462;47.384;19.218;2023-01-01T05:17:38;145.73;;;48.75;;
40757;SDS011;26462;47.384;19.218;2023-01-01T05:20:06;117.95;;;41.83;;
40757;SDS011;26462;47.384;19.218;2023-01-01T05:22:34;120.45;;;41.75;;
40757;SDS011;26462;47.384;19.218;2023-01-01T05:25:02;118.63;;;41.45;;
40757;SDS011;26462;47.384;19.218;2023-01-01T05:27:29;104.03;;;37.30;;
40757;SDS011;26462;47.384;19.218;2023-01-01T05:29:57;87.68;;;32.80;;
40757;SDS011;26462;47.384;19.218;2023-01-01T05:32:27;95.05;;;32.75;;
40757;SDS011;26462;47.384;19.218;2023-01-01T05:34:58;90.47;;;32.17;;
40757;SDS011;26462;47.384;19.218;2023-01-01T05:37:25;85.75;;;31.38;;
40757;SDS011;26462;47.384;19.218;2023-01-01T05:39:53;89.68;;;32.97;;
40757;SDS011;26462;47.384;19.218;2023-01-01T05:42:20;93.43;;;33.35;;
40757;SDS011;26462;47.384;19.218;2023-01-01T05:44:48;83.72;;;31.88;;
40757;SDS011;26462;47.384;19.218;2023-01-01T05:47:16;86.28;;;29.52;;
40757;SDS011;26462;47.384;19.218;2023-01-01T05:49:45;78.05;;;28.17;;
40757;SDS011;26462;47.384;19.218;2023-01-01T05:52:12;88.05;;;31.00;;
40757;SDS011;26462;47.384;19.218;2023-01-01T05:54:40;75.03;;;27.33;;
40757;SDS011;26462;47.384;19.218;2023-01-01T05:57:07;74.40;;;27.52;;
40757;SDS011;26462;47.384;19.218;2023-01-01T05:59:35;79.22;;;29.88;;
40757;SDS011;26462;47.384;19.218;2023-01-01T06:02:03;80.43;;;29.60;;
40757;SDS011;26462;47.384;19.218;2023-01-01T06:04:31;79.90;;;29.42;;
40757;SDS011;26462;47.384;19.218;2023-01-01T06:06:58;77.93;;;26.85;;
40757;SDS011;26462;47.384;19.218;2023-01-01T06:09:26;74.18;;;28.05;;
40757;SDS011;26462;47.384;19.218;2023-01-01T06:11:53;83.10;;;29.77;;
40757;SDS011;26462;47.384;19.218;2023-01-01T06:14:21;85.43;;;30.48;;
40757;SDS011;26462;47.384;19.218;2023-01-01T06:16:49;75.90;;;27.75;;
40757;SDS011;26462;47.384;19.218;2023-01-01T06:19:16;85.38;;;30.73;;
40757;SDS011;26462;47.384;19.218;2023-01-01T06:21:47;85.50;;;33.00;;
40757;SDS011;26462;47.384;19.218;2023-01-01T06:24:15;85.45;;;32.33;;
40757;SDS011;26462;47.384;19.218;2023-01-01T06:26:42;115.55;;;40.90;;
40757;SDS011;26462;47.384;19.218;2023-01-01T06:29:12;126.13;;;48.00;;
40757;SDS011;26462;47.384;19.218;2023-01-01T06:31:39;162.20;;;53.88;;
40757;SDS011;26462;47.384;19.218;2023-01-01T06:34:07;185.20;;;63.30;;
40757;SDS011;26462;47.384;19.218;2023-01-01T06:36:35;130.80;;;47.85;;
40757;SDS011;26462;47.384;19.218;2023-01-01T06:39:02;123.95;;;42.13;;
40757;SDS011;26462;47.384;19.218;2023-01-01T06:41:30;107.30;;;40.08;;
40757;SDS011;26462;47.384;19.218;2023-01-01T06:44:01;96.28;;;34.15;;
40757;SDS011;26462;47.384;19.218;2023-01-01T06:46:30;104.22;;;38.15;;
40757;SDS011;26462;47.384;19.218;2023-01-01T06:49:02;99.93;;;35.67;;
40757;SDS011;26462;47.384;19.218;2023-01-01T06:51:35;93.85;;;34.58;;
40757;SDS011;26462;47.384;19.218;2023-01-01T06:54:04;133.68;;;44.40;;
40757;SDS011;26462;47.384;19.218;2023-01-01T06:56:32;127.82;;;44.97;;
40757;SDS011;26462;47.384;19.218;2023-01-01T06:59:02;167.73;;;58.70;;
40757;SDS011;26462;47.384;19.218;2023-01-01T07:01:30;167.93;;;59.17;;
40757;SDS011;26462;47.384;19.218;2023-01-01T07:04:02;162.63;;;58.85;;
40757;SDS011;26462;47.384;19.218;2023-01-01T07:06:33;165.20;;;56.47;;
40757;SDS011;26462;47.384;19.218;2023-01-01T07:09:01;162.10;;;57.58;;
40757;SDS011;26462;47.384;19.218;2023-01-01T07:11:30;164.38;;;58.90;;
40757;SDS011;26462;47.384;19.218;2023-01-01T07:14:01;154.45;;;54.88;;
40757;SDS011;26462;47.384;19.218;2023-01-01T07:16:28;170.45;;;57.50;;
40757;SDS011;26462;47.384;19.218;2023-01-01T07:18:59;156.15;;;54.78;;
40757;SDS011;26462;47.384;19.218;2023-01-01T07:21:36;143.65;;;51.40;;
40757;SDS011;26462;47.384;19.218;2023-01-01T07:24:10;136.88;;;47.65;;
40757;SDS011;26462;47.384;19.218;2023-01-01T07:26:39;150.20;;;50.05;;
40757;SDS011;26462;47.384;19.218;2023-01-01T07:29:09;155.07;;;52.88;;
40757;SDS011;26462;47.384;19.218;2023-01-01T07:31:39;143.73;;;48.22;;
40757;SDS011;26462;47.384;19.218;2023-01-01T07:34:10;155.40;;;53.72;;
40757;SDS011;26462;47.384;19.218;2023-01-01T07:36:40;165.80;;;55.17;;
40757;SDS011;26462;47.384;19.218;2023-01-01T07:39:09;195.57;;;63.70;;
40757;SDS011;26462;47.384;19.218;2023-01-01T07:41:39;170.68;;;57.63;;
40757;SDS011;26462;47.384;19.218;2023-01-01T07:44:07;161.63;;;56.55;;
40757;SDS011;26462;47.384;19.218;2023-01-01T07:46:37;160.75;;;53.97;;
40757;SDS011;26462;47.384;19.218;2023-01-01T07:49:08;141.32;;;49.40;;
40757;SDS011;26462;47.384;19.218;2023-01-01T07:51:35;141.80;;;50.15;;
40757;SDS011;26462;47.384;19.218;2023-01-01T07:54:03;125.80;;;46.63;;
40757;SDS011;26462;47.384;19.218;2023-01-01T07:56:33;138.23;;;50.45;;
40757;SDS011;26462;47.384;19.218;2023-01-01T07:59:02;125.18;;;46.78;;
40757;SDS011;26462;47.384;19.218;2023-01-01T08:01:29;122.47;;;44.92;;
40757;SDS011;26462;47.384;19.218;2023-01-01T08:03:57;126.65;;;44.28;;
40757;SDS011;26462;47.384;19.218;2023-01-01T08:06:24;112.18;;;42.65;;
40757;SDS011;26462;47.384;19.218;2023-01-01T08:08:51;110.45;;;40.50;;
40757;SDS011;26462;47.384;19.218;2023-01-01T08:11:19;97.50;;;38.53;;
40757;SDS011;26462;47.384;19.218;2023-01-01T08:13:47;98.07;;;36.38;;
40757;SDS011;26462;47.384;19.218;2023-01-01T08:16:14;94.50;;;37.05;;
40757;SDS011;26462;47.384;19.218;2023-01-01T08:18:45;95.32;;;35.33;;
40757;SDS011;26462;47.384;19.218;2023-01-01T08:21:16;97.32;;;37.22;;
40757;SDS011;26462;47.384;19.218;2023-01-01T08:23:43;81.78;;;34.20;;
40757;SDS011;26462;47.384;19.218;2023-01-01T08:26:14;88.57;;;32.03;;
40757;SDS011;26462;47.384;19.218;2023-01-01T08:28:43;90.97;;;33.60;;
40757;SDS011;26462;47.384;19.218;2023-01-01T08:31:13;89.78;;;32.10;;
40757;SDS011;26462;47.384;19.218;2023-01-01T08:33:41;87.55;;;32.17;;
40757;SDS011;26462;47.384;19.218;2023-01-01T08:36:11;91.47;;;33.28;;
40757;SDS011;26462;47.384;19.218;2023-01-01T08:38:40;94.40;;;36.65;;
40757;SDS011;26462;47.384;19.218;2023-01-01T08:41:08;99.35;;;36.50;;
40757;SDS011;26462;47.384;19.218;2023-01-01T08:43:36;110.50;;;38.53;;
40757;SDS011;26462;47.384;19.218;2023-01-01T08:46:03;107.10;;;40.83;;
40757;SDS011;26462;47.384;19.218;2023-01-01T08:48:33;124.38;;;48.08;;
40757;SDS011;26462;47.384;19.218;2023-01-01T08:51:03;140.38;;;51.47;;
40757;SDS011;26462;47.384;19.218;2023-01-01T08:53:31;116.03;;;45.30;;
40757;SDS011;26462;47.384;19.218;2023-01-01T08:56:03;110.05;;;42.38;;
40757;SDS011;26462;47.384;19.218;2023-01-01T08:58:33;143.52;;;55.08;;
40757;SDS011;26462;47.384;19.218;2023-01-01T09:01:02;147.30;;;52.45;;
40757;SDS011;26462;47.384;19.218;2023-01-01T09:03:30;142.20;;;53.47;;
40757;SDS011;26462;47.384;19.218;2023-01-01T09:06:00;121.35;;;46.58;;
40757;SDS011;26462;47.384;19.218;2023-01-01T09:08:28;114.72;;;44.00;;
40757;SDS011;26462;47.384;19.218;2023-01-01T09:10:59;109.22;;;39.72;;
40757;SDS011;26462;47.384;19.218;2023-01-01T09:15:56;91.25;;;36.88;;
40757;SDS011;26462;47.384;19.218;2023-01-01T09:18:25;93.93;;;37.20;;
40757;SDS011;26462;47.384;19.218;2023-01-01T09:20:53;75.82;;;31.45;;
40757;SDS011;26462;47.384;19.218;2023-01-01T09:23:20;85.53;;;33.65;;
40757;SDS011;26462;47.384;19.218;2023-01-01T09:25:48;81.07;;;33.10;;
40757;SDS011;26462;47.384;19.218;2023-01-01T09:28:16;90.20;;;32.55;;
40757;SDS011;26462;47.384;19.218;2023-01-01T09:30:53;75.20;;;29.58;;
40757;SDS011;26462;47.384;19.218;2023-01-01T09:33:23;73.78;;;27.20;;
40757;SDS011;26462;47.384;19.218;2023-01-01T09:35:51;69.25;;;27.45;;
40757;SDS011;26462;47.384;19.218;2023-01-01T09:38:21;79.30;;;30.30;;
40757;SDS011;26462;47.384;19.218;2023-01-01T09:43:39;86.63;;;31.73;;
40757;SDS011;26462;47.384;19.218;2023-01-01T09:46:15;86.70;;;34.90;;
40757;SDS011;26462;47.384;19.218;2023-01-01T09:48:46;93.28;;;34.47;;
40757;SDS011;26462;47.384;19.218;2023-01-01T09:51:22;92.07;;;36.65;;
40757;SDS011;26462;47.384;19.218;2023-01-01T09:53:59;105.97;;;43.88;;
40757;SDS011;26462;47.384;19.218;2023-01-01T09:56:33;114.10;;;50.65;;
40757;SDS011;26462;47.384;19.218;2023-01-01T09:59:06;91.70;;;37.13;;
40757;SDS011;26462;47.384;19.218;2023-01-01T10:01:45;91.20;;;39.10;;
40757;SDS011;26462;47.384;19.218;2023-01-01T10:07:18;90.22;;;35.92;;
40757;SDS011;26462;47.384;19.218;2023-01-01T10:10:02;101.53;;;40.47;;
40757;SDS011;26462;47.384;19.218;2023-01-01T10:15:22;117.35;;;43.88;;
40757;SDS011;26462;47.384;19.218;2023-01-01T10:18:16;105.53;;;43.72;;
40757;SDS011;26462;47.384;19.218;2023-01-01T10:26:17;111.72;;;45.83;;
40757;SDS011;26462;47.384;19.218;2023-01-01T10:28:54;125.90;;;50.65;;
40757;SDS011;26462;47.384;19.218;2023-01-01T10:31:35;128.68;;;58.92;;
40757;SDS011;26462;47.384;19.218;2023-01-01T10:34:27;142.60;;;62.95;;
40757;SDS011;26462;47.384;19.218;2023-01-01T10:36:58;132.90;;;56.90;;
40757;SDS011;26462;47.384;19.218;2023-01-01T10:39:26;124.25;;;50.40;;
40757;SDS011;26462;47.384;19.218;2023-01-01T10:41:56;106.82;;;45.42;;
40757;SDS011;26462;47.384;19.218;2023-01-01T10:44:28;131.57;;;58.05;;
40757;SDS011;26462;47.384;19.218;2023-01-01T10:47:04;129.50;;;54.03;;
40757;SDS011;26462;47.384;19.218;2023-01-01T10:49:59;146.45;;;57.88;;
40757;SDS011;26462;47.384;19.218;2023-01-01T10:52:35;154.93;;;62.85;;
40757;SDS011;26462;47.384;19.218;2023-01-01T10:55:18;179.00;;;74.80;;
40757;SDS011;26462;47.384;19.218;2023-01-01T10:57:47;140.35;;;57.28;;
40757;SDS011;26462;47.384;19.218;2023-01-01T11:00:22;146.50;;;55.50;;
40757;SDS011;26462;47.384;19.218;2023-01-01T11:03:24;136.40;;;55.47;;
40757;SDS011;26462;47.384;19.218;2023-01-01T11:06:02;141.68;;;60.83;;
40757;SDS011;26462;47.384;19.218;2023-01-01T11:09:00;135.55;;;57.60;;
40757;SDS011;26462;47.384;19.218;2023-01-01T11:11:44;106.90;;;46.30;;
40757;SDS011;26462;47.384;19.218;2023-01-01T11:14:22;114.28;;;49.28;;
40757;SDS011;26462;47.384;19.218;2023-01-01T11:16:53;120.47;;;55.08;;
40757;SDS011;26462;47.384;19.218;2023-01-01T11:21:59;114.47;;;49.38;;
40757;SDS011;26462;47.384;19.218;2023-01-01T11:24:28;133.07;;;53.72;;
40757;SDS011;26462;47.384;19.218;2023-01-01T11:29:46;130.00;;;53.10;;
40757;SDS011;26462;47.384;19.218;2023-01-01T11:32:29;126.28;;;51.33;;
40757;SDS011;26462;47.384;19.218;2023-01-01T11:35:02;116.00;;;48.40;;
40757;SDS011;26462;47.384;19.218;2023-01-01T11:37:32;100.07;;;44.72;;
40757;SDS011;26462;47.384;19.218;2023-01-01T11:40:05;116.65;;;49.83;;
40757;SDS011;26462;47.384;19.218;2023-01-01T11:42:50;44.22;;;20.33;;
40757;SDS011;26462;47.384;19.218;2023-01-01T11:45:25;33.80;;;14.80;;
40757;SDS011;26462;47.384;19.218;2023-01-01T11:48:04;41.45;;;17.23;;
40757;SDS011;26462;47.384;19.218;2023-01-01T11:50:38;30.45;;;12.95;;
40757;SDS011;26462;47.384;19.218;2023-01-01T11:55:54;28.90;;;10.73;;
40757;SDS011;26462;47.384;19.218;2023-01-01T11:58:30;36.05;;;15.88;;
40757;SDS011;26462;47.384;19.218;2023-01-01T12:01:04;25.75;;;11.60;;
40757;SDS011;26462;47.384;19.218;2023-01-01T12:04:01;32.47;;;15.43;;
40757;SDS011;26462;47.384;19.218;2023-01-01T12:06:46;24.67;;;10.40;;
40757;SDS011;26462;47.384;19.218;2023-01-01T12:11:54;50.88;;;24.50;;
40757;SDS011;26462;47.384;19.218;2023-01-01T12:14:43;31.15;;;16.45;;
40757;SDS011;26462;47.384;19.218;2023-01-01T12:17:36;38.97;;;18.10;;
40757;SDS011;26462;47.384;19.218;2023-01-01T12:20:24;30.30;;;15.40;;
40757;SDS011;26462;47.384;19.218;2023-01-01T12:22:55;287.75;;;126.43;;
40757;SDS011;26462;47.384;19.218;2023-01-01T12:25:23;71.68;;;33.97;;
40757;SDS011;26462;47.384;19.218;2023-01-01T12:33:48;35.53;;;18.50;;
40757;SDS011;26462;47.384;19.218;2023-01-01T12:36:21;25.85;;;13.93;;
40757;SDS011;26462;47.384;19.218;2023-01-01T12:42:17;26.90;;;13.05;;
40757;SDS011;26462;47.384;19.218;2023-01-01T12:53:54;28.27;;;15.60;;
40757;SDS011;26462;47.384;19.218;2023-01-01T12:56:48;28.75;;;19.48;;
40757;SDS011;26462;47.384;19.218;2023-01-01T12:59:33;17.98;;;9.80;;
40757;SDS011;26462;47.384;19.218;2023-01-01T13:02:16;18.17;;;10.15;;
40757;SDS011;26462;47.384;19.218;2023-01-01T13:04:53;27.63;;;14.50;;
40757;SDS011;26462;47.384;19.218;2023-01-01T13:07:30;33.58;;;15.32;;
40757;SDS011;26462;47.384;19.218;2023-01-01T13:10:15;24.02;;;12.98;;
40757;SDS011;26462;47.384;19.218;2023-01-01T13:12:49;33.65;;;19.35;;
40757;SDS011;26462;47.384;19.218;2023-01-01T13:18:07;36.88;;;19.77;;
40757;SDS011;26462;47.384;19.218;2023-01-01T13:21:05;35.10;;;18.15;;
40757;SDS011;26462;47.384;19.218;2023-01-01T13:23:46;41.42;;;24.92;;
40757;SDS011;26462;47.384;19.218;2023-01-01T13:45:28;43.33;;;25.10;;
40757;SDS011;26462;47.384;19.218;2023-01-01T13:49:04;53.30;;;26.98;;
40757;SDS011;26462;47.384;19.218;2023-01-01T14:00:20;40.65;;;23.67;;
40757;SDS011;26462;47.384;19.218;2023-01-01T14:02:57;42.70;;;23.42;;
40757;SDS011;26462;47.384;19.218;2023-01-01T14:05:40;40.58;;;22.70;;
40757;SDS011;26462;47.384;19.218;2023-01-01T14:08:30;36.22;;;19.08;;
40757;SDS011;26462;47.384;19.218;2023-01-01T14:11:02;35.03;;;20.23;;
40757;SDS011;26462;47.384;19.218;2023-01-01T14:13:46;32.20;;;19.25;;
40757;SDS011;26462;47.384;19.218;2023-01-01T14:16:14;32.83;;;18.58;;
40757;SDS011;26462;47.384;19.218;2023-01-01T14:18:52;35.38;;;20.42;;
40757;SDS011;26462;47.384;19.218;2023-01-01T14:21:27;42.10;;;22.45;;
40757;SDS011;26462;47.384;19.218;2023-01-01T14:23:58;35.67;;;20.27;;
40757;SDS011;26462;47.384;19.218;2023-01-01T14:26:27;35.00;;;19.45;;
40757;SDS011;26462;47.384;19.218;2023-01-01T14:29:01;38.53;;;20.63;;
40757;SDS011;26462;47.384;19.218;2023-01-01T14:31:38;34.53;;;19.67;;
40757;SDS011;26462;47.384;19.218;2023-01-01T14:34:13;35.30;;;19.65;;
40757;SDS011;26462;47.384;19.218;2023-01-01T14:36:50;43.35;;;21.30;;
40757;SDS011;26462;47.384;19.218;2023-01-01T14:39:26;38.25;;;20.05;;
40757;SDS011;26462;47.384;19.218;2023-01-01T14:41:58;41.42;;;21.25;;
40757;SDS011;26462;47.384;19.218;2023-01-01T14:44:54;31.35;;;18.48;;
40757;SDS011;26462;47.384;19.218;2023-01-01T14:47:22;37.67;;;20.92;;
40757;SDS011;26462;47.384;19.218;2023-01-01T14:49:54;35.55;;;20.40;;
40757;SDS011;26462;47.384;19.218;2023-01-01T14:52:38;38.60;;;19.65;;
40757;SDS011;26462;47.384;19.218;2023-01-01T14:55:06;36.50;;;21.05;;
40757;SDS011;26462;47.384;19.218;2023-01-01T14:57:34;39.55;;;20.77;;
40757;SDS011;26462;47.384;19.218;2023-01-01T15:00:12;42.70;;;22.33;;
40757;SDS011;26462;47.384;19.218;2023-01-01T15:02:47;40.53;;;20.55;;
40757;SDS011;26462;47.384;19.218;2023-01-01T15:05:30;38.67;;;19.88;;
40757;SDS011;26462;47.384;19.218;2023-01-01T15:08:03;36.28;;;20.08;;
40757;SDS011;26462;47.384;19.218;2023-01-01T15:10:35;42.65;;;21.75;;
40757;SDS011;26462;47.384;19.218;2023-01-01T15:13:04;52.20;;;27.57;;
40757;SDS011;26462;47.384;19.218;2023-01-01T15:15:33;44.53;;;23.77;;
40757;SDS011;26462;47.384;19.218;2023-01-01T15:18:15;40.22;;;23.02;;
40757;SDS011;26462;47.384;19.218;2023-01-01T15:21:52;56.70;;;29.95;;
40757;SDS011;26462;47.384;19.218;2023-01-01T15:24:17;52.97;;;26.73;;
40757;SDS011;26462;47.384;19.218;2023-01-01T15:26:56;50.63;;;25.17;;
40757;SDS011;26462;47.384;19.218;2023-01-01T15:29:29;48.05;;;26.65;;
40757;SDS011;26462;47.384;19.218;2023-01-01T15:32:06;51.78;;;26.80;;
40757;SDS011;26462;47.384;19.218;2023-01-01T15:34:48;62.42;;;31.10;;
40757;SDS011;26462;47.384;19.218;2023-01-01T15:37:18;50.83;;;25.90;;
40757;SDS011;26462;47.384;19.218;2023-01-01T15:39:49;51.45;;;26.67;;
40757;SDS011;26462;47.384;19.218;2023-01-01T15:44:55;45.47;;;23.80;;
40757;SDS011;26462;47.384;19.218;2023-01-01T15:47:36;47.67;;;24.83;;
40757;SDS011;26462;47.384;19.218;2023-01-01T15:50:39;61.58;;;28.25;;
40757;SDS011;26462;47.384;19.218;2023-01-01T15:53:02;75.32;;;38.55;;
40757;SDS011;26462;47.384;19.218;2023-01-01T15:55:36;52.72;;;25.52;;
40757;SDS011;26462;47.384;19.218;2023-01-01T15:58:16;39.70;;;21.48;;
40757;SDS011;26462;47.384;19.218;2023-01-01T16:00:59;43.88;;;21.63;;
40757;SDS011;26462;47.384;19.218;2023-01-01T16:03:29;38.28;;;20.13;;
40757;SDS011;26462;47.384;19.218;2023-01-01T16:05:59;35.95;;;21.50;;
40757;SDS011;26462;47.384;19.218;2023-01-01T16:08:26;41.22;;;20.40;;
40757;SDS011;26462;47.384;19.218;2023-01-01T16:10:54;42.15;;;20.77;;
40757;SDS011;26462;47.384;19.218;2023-01-01T16:13:21;45.92;;;23.40;;
40757;SDS011;26462;47.384;19.218;2023-01-01T16:18:23;58.35;;;27.88;;
40757;SDS011;26462;47.384;19.218;2023-01-01T16:20:56;67.80;;;34.95;;
40757;SDS011;26462;47.384;19.218;2023-01-01T16:23:23;49.58;;;24.88;;
40757;SDS011;26462;47.384;19.218;2023-01-01T16:25:51;49.05;;;24.83;;
40757;SDS011;26462;47.384;19.218;2023-01-01T16:28:18;51.90;;;27.30;;
40757;SDS011;26462;47.384;19.218;2023-01-01T16:30:45;54.55;;;26.08;;
40757;SDS011;26462;47.384;19.218;2023-01-01T16:33:14;55.13;;;26.95;;
40757;SDS011;26462;47.384;19.218;2023-01-01T16:35:43;48.40;;;24.77;;
40757;SDS011;26462;47.384;19.218;2023-01-01T16:38:11;48.33;;;24.05;;
40757;SDS011;26462;47.384;19.218;2023-01-01T16:40:38;51.90;;;27.38;;
40757;SDS011;26462;47.384;19.218;2023-01-01T16:43:07;55.97;;;28.63;;
40757;SDS011;26462;47.384;19.218;2023-01-01T16:45:41;54.20;;;29.27;;
40757;SDS011;26462;47.384;19.218;2023-01-01T16:48:09;61.85;;;28.13;;
40757;SDS011;26462;47.384;19.218;2023-01-01T16:50:37;58.78;;;28.58;;
40757;SDS011;26462;47.384;19.218;2023-01-01T16:53:04;58.58;;;29.60;;
40757;SDS011;26462;47.384;19.218;2023-01-01T16:55:31;70.93;;;32.13;;
40757;SDS011;26462;47.384;19.218;2023-01-01T16:57:59;62.20;;;29.20;;
40757;SDS011;26462;47.384;19.218;2023-01-01T17:00:56;60.38;;;30.80;;
40757;SDS011;26462;47.384;19.218;2023-01-01T17:03:25;74.05;;;32.22;;
40757;SDS011;26462;47.384;19.218;2023-01-01T17:05:53;60.55;;;31.10;;
40757;SDS011;26462;47.384;19.218;2023-01-01T17:08:20;64.43;;;30.65;;
40757;SDS011;26462;47.384;19.218;2023-01-01T17:10:48;58.80;;;29.58;;
40757;SDS011;26462;47.384;19.218;2023-01-01T17:13:23;64.05;;;30.38;;
40757;SDS011;26462;47.384;19.218;2023-01-01T17:15:54;64.03;;;32.13;;
40757;SDS011;26462;47.384;19.218;2023-01-01T17:18:24;66.97;;;31.70;;
40757;SDS011;26462;47.384;19.218;2023-01-01T17:21:11;67.75;;;33.80;;
40757;SDS011;26462;47.384;19.218;2023-01-01T17:23:40;76.80;;;35.47;;
40757;SDS011;26462;47.384;19.218;2023-01-01T17:26:15;90.95;;;38.88;;
40757;SDS011;26462;47.384;19.218;2023-01-01T17:28:44;81.40;;;36.65;;
40757;SDS011;26462;47.384;19.218;2023-01-01T17:31:15;65.57;;;31.30;;
40757;SDS011;26462;47.384;19.218;2023-01-01T17:33:45;72.40;;;34.03;;
40757;SDS011;26462;47.384;19.218;2023-01-01T17:36:13;69.97;;;33.58;;
40757;SDS011;26462;47.384;19.218;2023-01-01T17:38:41;72.93;;;33.83;;
40757;SDS011;26462;47.384;19.218;2023-01-01T17:41:15;69.45;;;33.75;;
40757;SDS011;26462;47.384;19.218;2023-01-01T17:43:44;69.90;;;33.58;;
40757;SDS011;26462;47.384;19.218;2023-01-01T17:46:14;73.43;;;35.25;;
40757;SDS011;26462;47.384;19.218;2023-01-01T17:48:43;66.40;;;32.85;;
40757;SDS011;26462;47.384;19.218;2023-01-01T17:51:11;72.05;;;35.80;;
40757;SDS011;26462;47.384;19.218;2023-01-01T17:53:39;78.50;;;37.13;;
40757;SDS011;26462;47.384;19.218;2023-01-01T17:56:08;73.65;;;37.55;;
40757;SDS011;26462;47.384;19.218;2023-01-01T17:58:40;62.70;;;33.13;;
40757;SDS011;26462;47.384;19.218;2023-01-01T18:03:37;69.90;;;33.78;;
40757;SDS011;26462;47.384;19.218;2023-01-01T18:06:07;72.82;;;34.42;;
40757;SDS011;26462;47.384;19.218;2023-01-01T18:08:35;80.53;;;38.60;;
40757;SDS011;26462;47.384;19.218;2023-01-01T18:11:02;68.80;;;33.83;;
40757;SDS011;26462;47.384;19.218;2023-01-01T18:13:31;70.78;;;34.45;;
40757;SDS011;26462;47.384;19.218;2023-01-01T18:15:59;83.47;;;38.75;;
40757;SDS011;26462;47.384;19.218;2023-01-01T18:18:30;84.10;;;37.78;;
40757;SDS011;26462;47.384;19.218;2023-01-01T18:21:13;92.50;;;41.33;;
40757;SDS011;26462;47.384;19.218;2023-01-01T18:23:45;87.53;;;39.40;;
40757;SDS011;26462;47.384;19.218;2023-01-01T18:26:13;82.30;;;38.75;;
40757;SDS011;26462;47.384;19.218;2023-01-01T18:28:41;85.03;;;38.30;;
40757;SDS011;26462;47.384;19.218;2023-01-01T18:31:13;89.28;;;38.75;;
40757;SDS011;26462;47.384;19.218;2023-01-01T18:33:43;84.80;;;40.55;;
40757;SDS011;26462;47.384;19.218;2023-01-01T18:36:14;96.85;;;42.25;;
40757;SDS011;26462;47.384;19.218;2023-01-01T18:44:23;86.07;;;40.13;;
40757;SDS011;26462;47.384;19.218;2023-01-01T18:49:32;82.15;;;39.00;;
40757;SDS011;26462;47.384;19.218;2023-01-01T18:54:32;71.13;;;34.15;;
40757;SDS011;26462;47.384;19.218;2023-01-01T18:59:56;70.13;;;34.17;;
40757;SDS011;26462;47.384;19.218;2023-01-01T19:02:28;75.93;;;34.88;;
40757;SDS011;26462;47.384;19.218;2023-01-01T19:05:17;74.57;;;34.35;;
40757;SDS011;26462;47.384;19.218;2023-01-01T19:10:34;69.20;;;33.38;;
40757;SDS011;26462;47.384;19.218;2023-01-01T19:13:13;71.80;;;35.25;;
40757;SDS011;26462;47.384;19.218;2023-01-01T19:15:43;75.32;;;36.35;;
40757;SDS011;26462;47.384;19.218;2023-01-01T19:18:18;76.53;;;36.72;;
40757;SDS011;26462;47.384;19.218;2023-01-01T19:20:48;71.63;;;34.58;;
40757;SDS011;26462;47.384;19.218;2023-01-01T19:23:22;74.25;;;36.22;;
40757;SDS011;26462;47.384;19.218;2023-01-01T19:25:50;77.13;;;36.58;;
40757;SDS011;26462;47.384;19.218;2023-01-01T19:28:53;83.20;;;36.83;;
40757;SDS011;26462;47.384;19.218;2023-01-01T19:31:18;86.78;;;40.70;;
40757;SDS011;26462;47.384;19.218;2023-01-01T19:33:46;78.95;;;34.22;;
40757;SDS011;26462;47.384;19.218;2023-01-01T19:36:14;73.50;;;33.40;;
40757;SDS011;26462;47.384;19.218;2023-01-01T19:38:42;77.07;;;33.10;;
40757;SDS011;26462;47.384;19.218;2023-01-01T19:41:10;67.43;;;31.60;;
40757;SDS011;26462;47.384;19.218;2023-01-01T19:43:39;64.00;;;31.20;;
40757;SDS011;26462;47.384;19.218;2023-01-01T19:46:07;70.70;;;34.00;;
40757;SDS011;26462;47.384;19.218;2023-01-01T19:48:34;76.00;;;34.03;;
40757;SDS011;26462;47.384;19.218;2023-01-01T19:51:04;64.20;;;31.73;;
40757;SDS011;26462;47.384;19.218;2023-01-01T19:53:31;65.50;;;31.70;;
40757;SDS011;26462;47.384;19.218;2023-01-01T19:55:59;64.20;;;31.52;;
40757;SDS011;26462;47.384;19.218;2023-01-01T19:58:26;78.05;;;34.15;;
40757;SDS011;26462;47.384;19.218;2023-01-01T20:00:56;72.15;;;32.90;;
40757;SDS011;26462;47.384;19.218;2023-01-01T20:03:26;69.13;;;32.35;;